createdAt,value
2023-01-09T00:00:43.907Z,2.00
2023-01-09T00:05:45.659Z,2.30
2023-01-09T00:10:49.929Z,1.70
2023-01-09T00:15:51.834Z,1.90
2023-01-09T00:20:53.496Z,1.97
2023-01-09T00:26:09.084Z,2.47
2023-01-09T00:31:11.322Z,2.20
2023-01-09T00:36:13.190Z,1.70
2023-01-09T00:41:19.710Z,1.87
2023-01-09T00:46:30.214Z,2.10
2023-01-09T00:51:31.966Z,2.50
2023-01-09T00:56:36.049Z,1.90
2023-01-09T01:01:37.782Z,1.70
2023-01-09T01:06:58.072Z,2.50
2023-01-09T01:12:00.743Z,1.50
2023-01-09T01:17:03.037Z,1.80
2023-01-09T01:22:05.051Z,1.80
2023-01-09T01:27:06.719Z,2.10
2023-01-09T01:32:08.486Z,2.00
2023-01-09T01:37:10.297Z,1.77
2023-01-09T01:42:13.681Z,1.80
2023-01-09T01:47:17.435Z,2.20
2023-01-09T01:52:20.432Z,1.93
2023-01-09T01:57:22.184Z,1.63
2023-01-09T02:02:28.304Z,1.67
2023-01-09T02:07:30.344Z,1.70
2023-01-09T02:12:32.086Z,1.60
2023-01-09T02:17:46.375Z,1.70
2023-01-09T02:23:06.505Z,1.90
2023-01-09T02:28:19.876Z,2.33
2023-01-09T02:33:30.327Z,2.00
2023-01-09T02:38:40.851Z,1.93
2023-01-09T02:43:42.503Z,2.20
2023-01-09T02:48:45.468Z,1.70
2023-01-09T02:54:10.921Z,1.70
2023-01-09T02:59:12.602Z,2.00
2023-01-09T03:04:38.451Z,1.70
2023-01-09T03:09:42.565Z,1.50
2023-01-09T03:14:48.487Z,2.30
2023-01-09T03:19:53.755Z,2.00
2023-01-09T03:24:55.418Z,1.50
2023-01-09T03:29:58.022Z,2.00
2023-01-09T03:35:01.587Z,1.57
2023-01-09T03:40:03.497Z,2.00
2023-01-09T03:45:05.992Z,1.70
2023-01-09T03:50:08.549Z,1.50
2023-01-09T03:55:10.731Z,2.27
2023-01-09T04:00:13.225Z,1.50
2023-01-09T04:05:15.015Z,1.50
2023-01-09T04:10:16.933Z,1.60
2023-01-09T04:15:19.312Z,1.40
2023-01-09T04:20:21.018Z,1.60
2023-01-09T04:25:25.398Z,2.03
2023-01-09T04:30:27.114Z,1.70
2023-01-09T04:35:28.867Z,1.90
2023-01-09T04:40:30.587Z,1.70
2023-01-09T04:45:32.647Z,1.60
2023-01-09T19:07:03.588Z,3.40
2023-01-09T19:12:05.540Z,3.80
2023-01-09T19:17:07.317Z,3.77
2023-01-09T19:22:08.942Z,3.20
2023-01-09T19:27:10.677Z,4.90
2023-01-09T19:32:13.933Z,3.87
2023-01-09T19:37:16.077Z,2.83
2023-01-09T19:42:18.052Z,3.40
2023-01-09T19:47:19.642Z,3.10
2023-01-09T19:52:21.305Z,3.23
2023-01-09T19:57:23.001Z,2.93
2023-01-09T20:02:24.601Z,3.00
2023-01-09T20:07:26.370Z,3.03
2023-01-09T20:12:28.151Z,3.33
2023-01-09T20:17:29.819Z,4.00
2023-01-09T20:22:32.006Z,3.97
2023-01-09T20:27:33.696Z,3.57
2023-01-09T20:32:35.411Z,3.70
2023-01-09T20:37:38.373Z,3.00
2023-01-09T20:42:39.925Z,3.80
2023-01-09T20:47:41.569Z,3.90
2023-01-09T20:52:43.202Z,3.60
2023-01-09T20:57:44.842Z,4.03
2023-01-09T21:02:46.643Z,3.00
2023-01-09T21:07:48.285Z,2.50
2023-01-09T21:12:50.071Z,2.17
2023-01-09T21:17:51.774Z,2.73
2023-01-09T21:22:53.514Z,2.40
2023-01-09T21:27:55.212Z,2.30
2023-01-09T21:32:57.050Z,2.80
2023-01-09T21:37:58.889Z,3.03
2023-01-09T21:43:19.285Z,3.07
2023-01-09T21:48:21.138Z,2.27
2023-01-09T21:53:22.915Z,2.63
2023-01-09T21:58:24.588Z,3.50
2023-01-09T22:03:27.135Z,2.33
2023-01-09T22:08:28.737Z,2.43
2023-01-09T22:13:31.085Z,2.80
2023-01-09T22:18:34.604Z,2.40
2023-01-09T22:23:36.257Z,2.13
2023-01-09T22:28:38.118Z,2.30
2023-01-09T22:33:39.809Z,2.20
2023-01-09T22:38:41.360Z,2.40
2023-01-09T22:43:43.031Z,2.40
2023-01-09T22:48:44.953Z,2.37
2023-01-09T22:53:47.446Z,2.60
2023-01-09T22:58:54.036Z,3.03
2023-01-09T23:03:55.727Z,3.10
2023-01-09T23:08:57.301Z,2.60
2023-01-09T23:13:58.908Z,3.00
2023-01-09T23:19:00.541Z,2.90
2023-01-09T23:24:02.305Z,2.67
2023-01-09T23:29:07.057Z,3.17
2023-01-09T23:34:12.863Z,2.70
2023-01-09T23:39:14.713Z,3.47
2023-01-09T23:44:16.450Z,2.93
2023-01-09T23:49:18.121Z,3.77
2023-01-09T23:54:19.853Z,4.10
2023-01-09T23:59:21.459Z,2.80
